createdAt,value
2018-06-11T00:01:58.478Z,99875.77
2018-06-11T00:04:27.496Z,99875.80
2018-06-11T00:06:56.428Z,99863.89
2018-06-11T00:09:25.409Z,99887.88
2018-06-11T00:11:54.334Z,99881.64
2018-06-11T00:14:23.325Z,99881.41
2018-06-11T00:16:52.267Z,99873.77
2018-06-11T00:19:21.249Z,99869.09
2018-06-11T00:21:50.213Z,99868.70
2018-06-11T00:24:19.194Z,99863.89
2018-06-11T00:26:48.125Z,99858.61
2018-06-11T00:29:17.144Z,99857.00
2018-06-11T00:31:46.074Z,99857.95
2018-06-11T00:34:15.106Z,99849.01
2018-06-11T00:36:44.041Z,99845.75
2018-06-11T00:39:13.017Z,99841.56
2018-06-11T00:41:42.050Z,99838.84
2018-06-11T00:44:11.002Z,99831.54
2018-06-11T00:46:39.993Z,99836.66
2018-06-11T00:49:08.970Z,99845.14
2018-06-11T00:51:37.914Z,99841.77
2018-06-11T00:54:07.140Z,99844.79
2018-06-11T00:56:36.130Z,99836.31
2018-06-11T00:59:05.135Z,99841.06
2018-06-11T01:01:34.148Z,99838.05
2018-06-11T01:04:03.399Z,99838.30
2018-06-11T01:06:32.387Z,99837.94
2018-06-11T01:09:02.387Z,99849.45
2018-06-11T01:11:31.363Z,99835.89
2018-06-11T01:14:00.318Z,99838.82
2018-06-11T01:16:29.310Z,99837.22
2018-06-11T01:18:58.250Z,99841.87
2018-06-11T01:21:27.257Z,99831.27
2018-06-11T01:23:56.210Z,99833.68
2018-06-11T01:26:25.240Z,99829.97
2018-06-11T01:28:54.184Z,99828.11
2018-06-11T01:31:23.173Z,99826.67
2018-06-11T01:33:52.095Z,99830.88
2018-06-11T01:36:21.086Z,99811.65
2018-06-11T01:38:50.063Z,99800.84
2018-06-11T01:41:19.006Z,99796.31
2018-06-11T01:43:47.963Z,99809.38
2018-06-11T01:46:16.930Z,99813.16
2018-06-11T01:48:45.842Z,99807.02
2018-06-11T01:51:14.783Z,99801.59
2018-06-11T01:53:43.715Z,99789.13
2018-06-11T01:56:12.673Z,99790.77
2018-06-11T01:58:41.586Z,99788.39
2018-06-11T02:01:10.603Z,99781.58
2018-06-11T02:03:39.533Z,99775.81
2018-06-11T02:06:08.651Z,99763.98
2018-06-11T02:08:37.615Z,99770.53
2018-06-11T02:11:06.624Z,99773.97
2018-06-11T02:13:35.596Z,99780.41
2018-06-11T02:16:04.546Z,99787.25
2018-06-11T02:18:33.576Z,99785.42
2018-06-11T02:21:02.612Z,99787.69
2018-06-11T02:23:31.599Z,99794.58
2018-06-11T02:26:00.523Z,99792.38
2018-06-11T02:28:29.495Z,99786.74
2018-06-11T02:30:58.439Z,99789.48
2018-06-11T02:33:27.426Z,99789.27
2018-06-11T02:35:56.366Z,99779.63
2018-06-11T02:38:25.364Z,99775.44
2018-06-11T02:40:54.297Z,99782.19
2018-06-11T02:43:23.298Z,99782.86
2018-06-11T02:45:52.222Z,99784.45
2018-06-11T02:48:21.210Z,99789.53
2018-06-11T02:50:50.141Z,99790.96
2018-06-11T02:53:19.137Z,99782.59
2018-06-11T02:55:48.056Z,99787.80
2018-06-11T02:58:17.044Z,99790.77
2018-06-11T03:00:46.017Z,99789.53
2018-06-11T03:03:14.990Z,99792.81
2018-06-11T03:05:43.906Z,99791.07
2018-06-11T03:08:12.924Z,99779.27
2018-06-11T03:10:41.874Z,99779.42
2018-06-11T03:13:10.853Z,99780.87
2018-06-11T03:15:39.888Z,99771.30
2018-06-11T03:18:08.870Z,99786.05
2018-06-11T03:20:37.819Z,99776.83
2018-06-11T03:23:06.830Z,99775.12
2018-06-11T03:25:35.758Z,99783.78
2018-06-11T03:28:04.779Z,99785.97
2018-06-11T03:30:33.743Z,99793.81
2018-06-11T03:33:02.757Z,99796.23
2018-06-11T03:35:31.703Z,99796.22
2018-06-11T03:38:00.662Z,99787.63
2018-06-11T03:40:29.573Z,99790.88
2018-06-11T03:42:58.577Z,99793.40
2018-06-11T03:45:27.497Z,99794.18
2018-06-11T03:47:56.487Z,99799.62
2018-06-11T03:50:25.419Z,99790.94
2018-06-11T03:52:54.422Z,99800.44
2018-06-11T03:55:23.374Z,99800.89
2018-06-11T03:57:52.512Z,99795.02
2018-06-11T04:00:21.422Z,99796.50
2018-06-11T04:02:50.362Z,99788.16
2018-06-11T04:05:19.314Z,99793.09
2018-06-11T04:07:48.261Z,99795.55
2018-06-11T04:10:17.252Z,99789.58
2018-06-11T04:12:46.193Z,99793.24
2018-06-11T04:15:15.203Z,99788.16
2018-06-11T04:17:44.159Z,99783.88
2018-06-11T04:20:13.132Z,99775.72
2018-06-11T04:22:42.053Z,99787.09
2018-06-11T04:25:11.043Z,99784.95
2018-06-11T04:27:39.964Z,99785.41
2018-06-11T04:30:08.947Z,99790.25
2018-06-11T04:32:37.901Z,99787.77
2018-06-11T04:35:06.882Z,99788.64
2018-06-11T04:37:35.807Z,99785.84
2018-06-11T04:40:04.764Z,99785.63
2018-06-11T04:42:33.714Z,99781.77
2018-06-11T04:45:02.668Z,99783.77
2018-06-11T04:47:31.602Z,99778.48
2018-06-11T04:50:00.547Z,99771.02
2018-06-11T04:52:29.486Z,99771.06
2018-06-11T04:54:58.433Z,99768.05
2018-06-11T04:57:27.343Z,99767.62
2018-06-11T04:59:56.345Z,99764.80
2018-06-11T05:02:25.281Z,99768.94
2018-06-11T05:04:54.254Z,99772.51
2018-06-11T05:07:23.171Z,99766.44
2018-06-11T05:09:52.122Z,99774.03
2018-06-11T05:12:21.057Z,99776.59
2018-06-11T05:14:50.040Z,99770.73
2018-06-11T05:17:18.967Z,99781.66
2018-06-11T05:19:47.936Z,99780.57
2018-06-11T05:22:16.842Z,99780.52
2018-06-11T05:24:45.832Z,99778.85
2018-06-11T05:27:14.762Z,99785.94
2018-06-11T05:29:43.738Z,99788.88
2018-06-11T05:32:12.662Z,99785.55
2018-06-11T05:34:41.679Z,99780.23
2018-06-11T05:37:10.586Z,99782.69
2018-06-11T05:39:39.512Z,99782.83
2018-06-11T05:42:08.478Z,99794.78
2018-06-11T05:44:37.397Z,99796.42
2018-06-11T05:47:06.382Z,99792.53
2018-06-11T05:49:35.330Z,99795.16
2018-06-11T05:52:04.333Z,99789.67
2018-06-11T05:54:33.282Z,99794.64
2018-06-11T05:57:02.249Z,99801.99
2018-06-11T05:59:31.202Z,99800.95
2018-06-11T06:02:00.242Z,99798.85
2018-06-11T06:04:29.169Z,99805.48
2018-06-11T06:06:58.185Z,99813.09
2018-06-11T06:09:27.164Z,99814.48
2018-06-11T06:11:56.270Z,99810.73
2018-06-11T06:14:25.292Z,99808.22
2018-06-11T06:16:54.253Z,99814.94
2018-06-11T06:19:23.253Z,99813.27
2018-06-11T06:21:52.253Z,99813.95
2018-06-11T06:24:21.343Z,99816.78
2018-06-11T06:26:50.324Z,99811.48
2018-06-11T06:29:19.303Z,99814.22
2018-06-11T06:31:48.295Z,99819.14
2018-06-11T06:34:17.469Z,99823.24
2018-06-11T06:36:46.424Z,99836.23
2018-06-11T06:39:15.366Z,99824.27
2018-06-11T06:41:44.364Z,99823.55
2018-06-11T06:44:13.325Z,99810.08
2018-06-11T06:46:42.342Z,99808.78
2018-06-11T06:49:11.269Z,99808.16
2018-06-11T06:51:40.254Z,99802.84
2018-06-11T06:54:09.346Z,99805.50
2018-06-11T06:56:38.297Z,99807.41
2018-06-11T06:59:07.437Z,99819.08
2018-06-11T07:01:36.368Z,99826.53
2018-06-11T07:04:05.375Z,99819.93
2018-06-11T07:06:34.346Z,99830.75
2018-06-11T07:09:03.484Z,99821.20
2018-06-11T07:11:32.418Z,99810.11
2018-06-11T07:14:01.475Z,99806.14
2018-06-11T07:16:30.448Z,99802.33
2018-06-11T07:18:59.715Z,99802.59
2018-06-11T07:21:28.652Z,99800.64
2018-06-11T07:23:57.748Z,99805.80
2018-06-11T07:26:26.725Z,99801.77
2018-06-11T07:28:55.756Z,99807.16
2018-06-11T07:31:24.856Z,99815.23
2018-06-11T07:33:53.803Z,99809.05
2018-06-11T07:36:22.730Z,99814.99
2018-06-11T07:38:51.695Z,99825.59
2018-06-11T07:41:20.646Z,99821.42
2018-06-11T07:43:49.621Z,99835.44
2018-06-11T07:46:18.638Z,99820.13
2018-06-11T07:48:47.601Z,99819.69
2018-06-11T07:51:16.549Z,99816.14
2018-06-11T07:53:45.546Z,99815.38
2018-06-11T07:56:14.614Z,99817.83
2018-06-11T07:58:43.634Z,99819.36
2018-06-11T08:01:12.565Z,99809.62
2018-06-11T08:03:41.527Z,99813.45
2018-06-11T08:06:10.461Z,99816.57
2018-06-11T08:08:39.410Z,99823.81
2018-06-11T08:11:08.397Z,99817.81
2018-06-11T08:13:37.439Z,99809.89
2018-06-11T08:16:06.476Z,99808.20
2018-06-11T08:18:35.474Z,99815.41
2018-06-11T08:21:04.448Z,99814.70
2018-06-11T08:23:33.464Z,99807.21
2018-06-11T08:26:02.390Z,99814.33
2018-06-11T08:28:31.346Z,99799.58
2018-06-11T08:31:00.282Z,99803.55
2018-06-11T08:33:29.268Z,99788.98
2018-06-11T08:35:58.212Z,99786.45
2018-06-11T08:38:27.102Z,99789.83
2018-06-11T08:40:56.178Z,99789.05
2018-06-11T08:43:25.138Z,99785.99
2018-06-11T08:45:54.079Z,99777.93
2018-06-11T08:48:23.247Z,99773.37
2018-06-11T08:50:52.261Z,99780.53
2018-06-11T08:53:21.497Z,99775.66
2018-06-11T08:55:50.800Z,99777.63
2018-06-11T08:58:20.068Z,99774.77
2018-06-11T09:00:49.511Z,99763.88
2018-06-11T09:03:18.539Z,99770.51
2018-06-11T09:05:47.529Z,99766.05
2018-06-11T09:08:16.450Z,99760.62
2018-06-11T09:10:45.523Z,99759.41
2018-06-11T09:13:14.461Z,99756.05
2018-06-11T09:15:43.449Z,99759.25
2018-06-11T09:18:12.482Z,99760.42
2018-06-11T09:20:41.415Z,99760.09
2018-06-11T09:23:10.339Z,99766.88
2018-06-11T09:25:39.385Z,99770.83
2018-06-11T09:28:08.345Z,99771.81
2018-06-11T09:30:37.318Z,99771.22
2018-06-11T09:33:06.324Z,99766.75
2018-06-11T09:35:35.346Z,99767.14
2018-06-11T09:38:04.294Z,99770.43
2018-06-11T09:40:33.330Z,99761.34
2018-06-11T09:43:02.410Z,99766.06
2018-06-11T09:45:35.122Z,99761.84
2018-06-11T09:48:04.065Z,99763.52
2018-06-11T09:50:33.047Z,99765.23
2018-06-11T09:53:02.110Z,99768.77
2018-06-11T09:55:31.080Z,99766.83
2018-06-11T09:58:00.021Z,99773.65
2018-06-11T10:00:33.030Z,99765.72
2018-06-11T10:03:01.975Z,99769.55
2018-06-11T10:05:30.943Z,99775.17
2018-06-11T10:07:59.862Z,99769.66
2018-06-11T10:10:28.948Z,99772.61
2018-06-11T10:12:57.846Z,99769.59
2018-06-11T10:15:26.855Z,99768.61
2018-06-11T10:17:55.794Z,99763.49
2018-06-11T10:20:24.756Z,99756.95
2018-06-11T10:22:53.875Z,99760.83
2018-06-11T10:25:23.073Z,99754.23
2018-06-11T10:27:52.170Z,99758.88
2018-06-11T10:30:21.273Z,99749.63
2018-06-11T10:32:50.720Z,99750.09
2018-06-11T10:35:19.955Z,99745.91
2018-06-11T10:37:48.902Z,99744.23
2018-06-11T10:40:17.915Z,99725.09
2018-06-11T10:42:46.958Z,99725.03
2018-06-11T10:45:15.995Z,99734.41
2018-06-11T10:47:45.008Z,99733.56
2018-06-11T10:50:14.062Z,99730.58
2018-06-11T10:52:43.129Z,99726.51
2018-06-11T10:55:12.133Z,99731.55
2018-06-11T10:57:41.087Z,99729.23
2018-06-11T11:00:10.102Z,99728.14
2018-06-11T11:02:39.356Z,99729.45
2018-06-11T11:05:08.561Z,99725.14
2018-06-11T11:07:37.750Z,99723.18
2018-06-11T11:10:06.954Z,99724.02
2018-06-11T11:12:36.052Z,99715.47
2018-06-11T11:15:05.042Z,99712.09
2018-06-11T11:17:34.025Z,99696.96
2018-06-11T11:20:03.127Z,99699.84
2018-06-11T11:22:32.174Z,99697.14
2018-06-11T11:25:01.123Z,99691.34
2018-06-11T11:27:30.107Z,99694.38
2018-06-11T11:29:59.153Z,99699.50
2018-06-11T11:32:28.199Z,99700.60
2018-06-11T11:34:57.138Z,99692.95
2018-06-11T11:37:26.118Z,99692.45
2018-06-11T11:39:55.093Z,99693.81
2018-06-11T11:42:24.270Z,99687.22
2018-06-11T11:44:53.314Z,99679.78
2018-06-11T11:47:22.524Z,99685.02
2018-06-11T11:49:51.454Z,99679.51
2018-06-11T11:52:20.551Z,99668.63
2018-06-11T11:54:49.501Z,99665.67
2018-06-11T11:57:18.483Z,99664.30
2018-06-11T11:59:47.479Z,99663.25
2018-06-11T12:02:16.519Z,99655.91
2018-06-11T12:04:45.631Z,99650.81
2018-06-11T12:07:14.831Z,99653.88
2018-06-11T12:09:43.977Z,99653.39
2018-06-11T12:12:13.013Z,99643.75
2018-06-11T12:14:41.957Z,99644.06
2018-06-11T12:17:10.956Z,99648.05
2018-06-11T12:19:39.886Z,99646.27
2018-06-11T12:22:08.854Z,99656.55
2018-06-11T12:24:37.830Z,99656.45
2018-06-11T12:27:06.826Z,99642.41
2018-06-11T12:29:35.747Z,99633.19
2018-06-11T12:32:04.823Z,99628.04
2018-06-11T12:34:34.106Z,99617.88
2018-06-11T12:37:03.120Z,99597.84
2018-06-11T12:39:32.096Z,99596.44
2018-06-11T12:42:01.227Z,99587.91
2018-06-11T12:44:30.226Z,99586.50
2018-06-11T12:46:59.238Z,99580.88
2018-06-11T12:49:28.471Z,99598.77
2018-06-11T12:51:57.458Z,99604.70
2018-06-11T12:54:26.483Z,99595.49
2018-06-11T12:56:55.515Z,99572.73
2018-06-11T12:59:24.444Z,99567.52
2018-06-11T13:01:53.422Z,99581.91
2018-06-11T13:04:22.404Z,99583.75
2018-06-11T13:06:51.370Z,99589.40
2018-06-11T13:09:20.308Z,99588.72
2018-06-11T13:11:49.310Z,99581.03
2018-06-11T13:14:18.255Z,99588.03
2018-06-11T13:16:47.385Z,99613.05
2018-06-11T13:19:16.340Z,99635.46
2018-06-11T13:21:45.363Z,99629.81
2018-06-11T13:24:14.286Z,99605.39
2018-06-11T13:26:43.274Z,99599.59
2018-06-11T13:29:12.235Z,99611.52
2018-06-11T13:31:41.205Z,99642.64
2018-06-11T13:34:10.186Z,99650.61
2018-06-11T13:36:39.309Z,99653.21
2018-06-11T13:39:09.400Z,99653.41
2018-06-11T13:41:38.412Z,99645.92
2018-06-11T13:44:07.418Z,99629.98
2018-06-11T13:46:36.395Z,99629.68
2018-06-11T13:49:05.334Z,99628.11
2018-06-11T13:51:40.766Z,99629.13
2018-06-11T13:54:09.734Z,99614.95
2018-06-11T13:56:38.798Z,99598.47
2018-06-11T13:59:07.724Z,99602.38
2018-06-11T14:01:36.727Z,99605.67
2018-06-11T14:04:05.723Z,99620.71
2018-06-11T14:06:34.707Z,99629.09
2018-06-11T14:09:04.000Z,99616.45
2018-06-11T14:11:33.024Z,99610.95
2018-06-11T14:14:02.132Z,99613.52
2018-06-11T14:16:31.079Z,99613.33
2018-06-11T14:19:00.066Z,99613.95
2018-06-11T14:21:29.254Z,99614.77
2018-06-11T14:23:58.558Z,99617.22
2018-06-11T14:26:27.816Z,99616.19
2018-06-11T14:28:57.177Z,99609.84
2018-06-11T14:31:26.114Z,99595.81
2018-06-11T14:33:55.105Z,99601.29
2018-06-11T14:36:24.027Z,99595.02
2018-06-11T14:38:53.093Z,99590.30
2018-06-11T14:41:22.054Z,99594.01
2018-06-11T14:43:51.348Z,99599.81
2018-06-11T14:46:20.390Z,99613.78
2018-06-11T14:48:49.351Z,99619.16
2018-06-11T14:51:18.373Z,99622.13
2018-06-11T14:53:47.446Z,99615.95
2018-06-11T14:56:16.487Z,99609.64
2018-06-11T14:58:45.487Z,99603.73
2018-06-11T15:01:14.430Z,99609.16
2018-06-11T15:03:43.496Z,99612.72
2018-06-11T15:06:12.490Z,99614.81
2018-06-11T15:08:41.491Z,99617.76
2018-06-11T15:11:10.482Z,99614.59
2018-06-11T15:13:39.509Z,99621.13
2018-06-11T15:16:08.484Z,99629.75
2018-06-11T15:18:37.699Z,99631.98
2018-06-11T15:21:06.695Z,99627.91
2018-06-11T15:23:35.916Z,99623.55
2018-06-11T15:26:04.835Z,99618.88
2018-06-11T15:28:33.836Z,99624.84
2018-06-11T15:31:02.795Z,99617.74
2018-06-11T15:33:31.842Z,99611.98
2018-06-11T15:36:00.800Z,99609.39
2018-06-11T15:38:29.807Z,99607.80
2018-06-11T15:40:58.953Z,99601.52
2018-06-11T15:43:27.947Z,99600.36
2018-06-11T15:45:56.907Z,99602.27
2018-06-11T15:48:25.910Z,99610.86
2018-06-11T15:50:55.595Z,99608.82
2018-06-11T15:53:24.591Z,99604.58
2018-06-11T15:55:53.904Z,99616.98
2018-06-11T15:58:22.894Z,99620.77
2018-06-11T16:00:51.858Z,99623.28
2018-06-11T16:03:20.888Z,99616.50
2018-06-11T16:05:49.855Z,99627.25
2018-06-11T16:08:18.865Z,99623.75
2018-06-11T16:10:48.130Z,99622.92
2018-06-11T16:13:17.124Z,99621.27
2018-06-11T16:15:46.078Z,99615.61
2018-06-11T16:18:15.103Z,99615.77
2018-06-11T16:20:44.075Z,99619.94
2018-06-11T16:23:13.071Z,99617.82
2018-06-11T16:25:42.048Z,99610.64
2018-06-11T16:28:11.074Z,99604.19
2018-06-11T16:30:40.013Z,99607.74
2018-06-11T16:33:09.058Z,99608.62
2018-06-11T16:35:38.062Z,99607.38
2018-06-11T16:38:07.014Z,99611.28
2018-06-11T16:40:36.013Z,99595.45
2018-06-11T16:43:05.071Z,99601.67
2018-06-11T16:45:34.034Z,99603.61
2018-06-11T16:48:03.044Z,99606.98
2018-06-11T16:50:31.994Z,99602.38
2018-06-11T16:53:00.967Z,99595.31
2018-06-11T16:55:29.917Z,99591.23
2018-06-11T16:57:59.020Z,99599.20
2018-06-11T17:00:27.944Z,99599.31
2018-06-11T17:02:56.954Z,99597.85
2018-06-11T17:05:26.123Z,99602.69
2018-06-11T17:07:55.126Z,99603.13
2018-06-11T17:10:24.077Z,99606.98
2018-06-11T17:12:53.022Z,99604.19
2018-06-11T17:15:21.995Z,99606.36
2018-06-11T17:17:50.946Z,99607.82
2018-06-11T17:20:19.953Z,99605.05
2018-06-11T17:22:48.945Z,99603.57
2018-06-11T17:25:17.925Z,99607.74
2018-06-11T17:27:46.871Z,99608.12
2018-06-11T17:30:15.847Z,99610.83
2018-06-11T17:32:44.795Z,99612.56
2018-06-11T17:35:13.804Z,99609.17
2018-06-11T17:37:42.749Z,99613.35
2018-06-11T17:40:11.793Z,99610.81
2018-06-11T17:42:40.739Z,99620.44
2018-06-11T17:45:09.748Z,99623.53
2018-06-11T17:47:38.719Z,99625.78
2018-06-11T17:50:07.710Z,99624.43
2018-06-11T17:52:36.723Z,99632.30
2018-06-11T17:55:05.719Z,99633.39
2018-06-11T17:57:34.818Z,99638.89
2018-06-11T18:00:04.236Z,99643.73
2018-06-11T18:02:33.209Z,99640.14
2018-06-11T18:05:02.422Z,99645.25
2018-06-11T18:07:31.359Z,99645.36
2018-06-11T18:10:00.915Z,99643.96
2018-06-11T18:12:29.863Z,99652.05
2018-06-11T18:14:58.891Z,99649.64
2018-06-11T18:17:27.863Z,99646.91
2018-06-11T18:19:56.858Z,99656.34
2018-06-11T18:22:25.824Z,99655.14
2018-06-11T18:24:54.801Z,99653.04
2018-06-11T18:27:23.762Z,99650.97
2018-06-11T18:29:52.787Z,99648.56
2018-06-11T18:32:21.972Z,99656.71
2018-06-11T18:34:51.094Z,99653.75
2018-06-11T18:37:20.125Z,99652.47
2018-06-11T18:39:49.122Z,99646.36
2018-06-11T18:42:18.074Z,99643.13
2018-06-11T18:44:47.060Z,99646.84
2018-06-11T18:47:16.043Z,99643.19
2018-06-11T18:49:45.111Z,99634.33
2018-06-11T18:52:14.034Z,99632.95
2018-06-11T18:54:43.010Z,99635.14
2018-06-11T18:57:12.010Z,99633.84
2018-06-11T18:59:40.991Z,99636.38
2018-06-11T19:02:09.955Z,99639.14
2018-06-11T19:04:38.915Z,99637.65
2018-06-11T19:07:07.908Z,99640.84
2018-06-11T19:09:36.830Z,99640.05
2018-06-11T19:12:06.062Z,99644.59
2018-06-11T19:14:34.970Z,99642.65
2018-06-11T19:17:04.352Z,99648.78
2018-06-11T19:19:33.331Z,99647.36
2018-06-11T19:22:02.356Z,99646.06
2018-06-11T19:24:31.316Z,99645.41
2018-06-11T19:27:00.305Z,99648.23
2018-06-11T19:29:29.234Z,99648.49
2018-06-11T19:31:58.254Z,99649.23
2018-06-11T19:34:27.182Z,99646.99
2018-06-11T19:36:56.170Z,99657.25
2018-06-11T19:39:25.127Z,99655.15
2018-06-11T19:41:54.106Z,99658.88
2018-06-11T19:44:23.076Z,99657.31
2018-06-11T19:46:52.077Z,99663.03
2018-06-11T19:49:21.145Z,99660.95
2018-06-11T19:51:50.165Z,99659.51
2018-06-11T19:54:19.173Z,99661.12
2018-06-11T19:56:48.163Z,99667.02
2018-06-11T19:59:17.097Z,99663.78
2018-06-11T20:01:46.081Z,99667.41
2018-06-11T20:04:15.007Z,99673.73
2018-06-11T20:06:44.011Z,99672.73
2018-06-11T20:09:12.930Z,99673.98
2018-06-11T20:11:42.574Z,99678.35
2018-06-11T20:14:11.798Z,99676.19
2018-06-11T20:16:41.057Z,99674.86
2018-06-11T20:19:10.369Z,99679.30
2018-06-11T20:21:39.719Z,99683.95
2018-06-11T20:24:08.983Z,99678.40
2018-06-11T20:26:38.254Z,99683.69
2018-06-11T20:29:07.503Z,99684.62
2018-06-11T20:31:36.809Z,99692.03
2018-06-11T20:34:06.089Z,99692.14
2018-06-11T20:36:35.364Z,99699.30
2018-06-11T20:39:06.849Z,99698.80
2018-06-11T20:41:35.841Z,99701.50
2018-06-11T20:44:04.826Z,99701.16
2018-06-11T20:46:33.773Z,99693.69
2018-06-11T20:49:02.798Z,99680.28
2018-06-11T20:51:31.818Z,99691.23
2018-06-11T20:54:00.835Z,99692.50
2018-06-11T20:56:30.099Z,99697.53
2018-06-11T20:58:59.165Z,99693.64
2018-06-11T21:01:28.115Z,99699.98
2018-06-11T21:03:57.263Z,99695.59
2018-06-11T21:06:26.223Z,99700.59
2018-06-11T21:08:55.234Z,99695.66
2018-06-11T21:11:24.202Z,99703.74
2018-06-11T21:13:53.243Z,99699.77
2018-06-11T21:16:22.194Z,99705.23
2018-06-11T21:18:51.507Z,99698.70
2018-06-11T21:21:20.482Z,99700.77
2018-06-11T21:23:49.531Z,99696.19
2018-06-11T21:26:18.478Z,99695.33
2018-06-11T21:28:47.500Z,99703.31
2018-06-11T21:31:16.443Z,99699.41
2018-06-11T21:33:45.399Z,99703.89
2018-06-11T21:36:14.354Z,99710.12
2018-06-11T21:38:43.343Z,99709.69
2018-06-11T21:41:12.407Z,99712.34
2018-06-11T21:43:41.550Z,99709.30
2018-06-11T21:46:10.482Z,99707.88
2018-06-11T21:48:39.955Z,99706.30
2018-06-11T21:51:08.884Z,99709.23
2018-06-11T21:53:37.899Z,99705.44
2018-06-11T21:56:06.866Z,99712.09
2018-06-11T21:58:35.978Z,99710.79
2018-06-11T22:01:04.954Z,99705.70
2018-06-11T22:03:33.933Z,99702.43
2018-06-11T22:06:02.916Z,99708.98
2018-06-11T22:08:31.874Z,99710.22
2018-06-11T22:11:00.882Z,99711.37
2018-06-11T22:13:29.771Z,99714.52
2018-06-11T22:15:58.743Z,99717.45
2018-06-11T22:18:27.675Z,99715.70
2018-06-11T22:20:56.651Z,99707.29
2018-06-11T22:23:25.581Z,99701.39
2018-06-11T22:25:54.562Z,99702.79
2018-06-11T22:28:23.522Z,99699.33
2018-06-11T22:30:52.503Z,99690.63
2018-06-11T22:33:21.465Z,99694.21
2018-06-11T22:35:50.453Z,99683.75
2018-06-11T22:38:19.412Z,99687.39
2018-06-11T22:40:48.426Z,99672.56
2018-06-11T22:43:17.394Z,99680.40
2018-06-11T22:45:46.407Z,99670.97
2018-06-11T22:48:15.351Z,99676.73
2018-06-11T22:50:44.351Z,99679.11
2018-06-11T22:53:13.293Z,99678.81
2018-06-11T22:55:42.282Z,99685.58
2018-06-11T22:58:11.242Z,99690.16
2018-06-11T23:00:40.246Z,99692.09
2018-06-11T23:03:09.233Z,99695.46
2018-06-11T23:05:38.203Z,99700.55
2018-06-11T23:08:07.174Z,99691.34
2018-06-11T23:10:36.170Z,99690.95
2018-06-11T23:13:05.086Z,99690.39
2018-06-11T23:15:34.035Z,99674.95
2018-06-11T23:18:03.009Z,99676.77
2018-06-11T23:20:32.044Z,99669.60
2018-06-11T23:23:01.056Z,99672.92
2018-06-11T23:25:30.017Z,99678.11
2018-06-11T23:27:59.001Z,99680.37
2018-06-11T23:30:27.942Z,99684.38
2018-06-11T23:32:56.956Z,99680.11
2018-06-11T23:35:25.894Z,99675.86
2018-06-11T23:37:54.868Z,99682.88
2018-06-11T23:40:23.800Z,99684.42
2018-06-11T23:42:52.767Z,99676.08
2018-06-11T23:45:21.702Z,99679.50
2018-06-11T23:47:50.686Z,99672.84
2018-06-11T23:50:19.644Z,99671.16
2018-06-11T23:52:48.622Z,99675.09
2018-06-11T23:55:17.563Z,99671.31
2018-06-11T23:57:46.524Z,99679.45
